African Loon — 3EFF9 — position and weather

sailwx.info

Track history (hours):
 
Tides and Currents Weather Stations Pressure Air Temp Water Temp Dewpoint Dewpoint Depression Visibility Wind Speed Wind Dir Waves Ship Positions

African Loon

Last reported at 2016-Sep-11 14:25 UTC. Time now 2016-Sep-24 20:53 UTC.
Position N 22°01' E 114°23'.
Warning: this ship's position is 13 days out of date.

Length 200 m; draft 7.1 m.

Type: Cargo ship. MMSI: 374319000.

Date/timePositionNaut miles runAvg speedWind from/ knotsBaromVisibWave heightAir tempDewpointWater temp
2016-Sep-11 14:25N 22°01' E 114°23'7 7.8
2016-Sep-11 13:32N 22°07' E 114°19'29 9.9
2016-Sep-11 10:34N 22°10' E 113°47'3912.1
2016-Sep-11 07:22N 22°48' E 113°37'12 3.0
2016-Sep-11 03:29N 22°58' E 113°33'0 0.0
2016-Sep-11 02:29N 22°58' E 113°33'0 0.0
2016-Sep-11 01:17N 22°58' E 113°33'0 0.0
2016-Sep-11 00:29N 22°58' E 113°33'0 0.0
2016-Sep-10 23:23N 22°58' E 113°33'0 0.0
2016-Sep-10 22:29N 22°58' E 113°33'0 0.0
2016-Sep-10 21:29N 22°58' E 113°33'0 0.0
2016-Sep-10 20:29N 22°58' E 113°33'0 0.0
2016-Sep-10 19:29N 22°58' E 113°33'0 0.0
2016-Sep-10 18:29N 22°58' E 113°33'0 0.0
2016-Sep-10 17:29N 22°58' E 113°33'0 0.0
2016-Sep-10 16:29N 22°58' E 113°33'0 0.0
2016-Sep-10 15:23N 22°58' E 113°33'0 0.0
2016-Sep-10 14:29N 22°58' E 113°33'0 0.0
2016-Sep-10 13:29N 22°58' E 113°33'0 0.0
2016-Sep-10 12:29N 22°58' E 113°33'0 0.0
2016-Sep-10 11:23N 22°58' E 113°33'0 0.0
2016-Sep-10 10:23N 22°58' E 113°33'0 0.0
2016-Sep-10 09:29N 22°58' E 113°33'0 0.0
2016-Sep-10 08:29N 22°58' E 113°33'0 0.0
2016-Sep-10 07:29N 22°58' E 113°33'0 0.0
2016-Sep-10 06:29N 22°58' E 113°33'0 0.0
2016-Sep-10 05:29N 22°58' E 113°33'0 0.0
2016-Sep-10 04:29N 22°58' E 113°33'0 0.0
2016-Sep-10 03:29N 22°58' E 113°33'0 0.0
2016-Sep-10 02:30N 22°58' E 113°33'0 0.0
2016-Sep-10 01:23N 22°58' E 113°33'0 0.0
2016-Sep-10 00:17N 22°58' E 113°33'0 0.0
2016-Sep-09 23:29N 22°58' E 113°33'0 0.0
2016-Sep-09 22:23N 22°58' E 113°33'0 0.0
2016-Sep-09 21:24N 22°58' E 113°33'0 0.0
2016-Sep-09 20:29N 22°58' E 113°33'0 0.0
2016-Sep-09 19:29N 22°58' E 113°33'0 0.0
2016-Sep-09 18:29N 22°58' E 113°33'0 0.0
2016-Sep-09 17:29N 22°58' E 113°33'0 0.0
2016-Sep-09 16:29N 22°58' E 113°33'0 0.0
2016-Sep-09 15:29N 22°58' E 113°33'0 0.0
2016-Sep-09 14:29N 22°58' E 113°33'0 0.0
2016-Sep-09 13:29N 22°58' E 113°33'0 0.0
2016-Sep-09 10:29N 22°58' E 113°33'0 0.0
2016-Sep-09 09:29N 22°58' E 113°33'0 0.0
2016-Sep-09 08:29N 22°58' E 113°33'0 0.0
2016-Sep-09 07:29N 22°58' E 113°33'0 0.0
2016-Sep-09 06:23N 22°58' E 113°33'0 0.0
2016-Sep-09 05:29N 22°58' E 113°33'0 0.0
2016-Sep-09 04:17N 22°58' E 113°33'0 0.0
2016-Sep-09 03:29N 22°58' E 113°33'0 0.0
2016-Sep-09 02:23N 22°58' E 113°33'0 0.0
2016-Sep-09 01:23N 22°58' E 113°33'0 0.0
2016-Sep-09 00:29N 22°58' E 113°33'0 0.0
2016-Sep-08 23:17N 22°58' E 113°33'0 0.0
2016-Sep-08 22:29N 22°58' E 113°33'0 0.0
2016-Sep-08 21:29N 22°58' E 113°33'0 0.0
2016-Sep-08 20:29N 22°58' E 113°33'0 0.0
2016-Sep-08 19:29N 22°58' E 113°33'0 0.0
2016-Sep-08 18:29N 22°58' E 113°33'0 0.0
2016-Sep-08 17:29N 22°58' E 113°33'0 0.0
2016-Sep-08 16:23N 22°58' E 113°33'0 0.0
2016-Sep-08 15:29N 22°58' E 113°33'0 0.0
2016-Sep-08 14:29N 22°58' E 113°33'0 0.0
2016-Sep-08 13:29N 22°58' E 113°33'0 0.0
2016-Sep-08 12:29N 22°58' E 113°33'0 0.0
2016-Sep-08 11:30N 22°58' E 113°33'0 0.0
2016-Sep-08 10:18N 22°58' E 113°33'1 1.7
2016-Sep-08 09:33N 22°57' E 113°33'9 9.0
2016-Sep-08 08:32N 22°49' E 113°36'5 0.2
2016-Sep-07 03:32N 22°44' E 113°39'2110.6
2016-Sep-07 01:33N 22°24' E 113°46'1212.0
2016-Sep-07 00:33N 22°13' E 113°49'9 7.8
2016-Sep-06 23:27N 22°05' E 113°54'26 1.1
2016-Sep-05 22:33N 22°08' E 114°22'  
Track history (hours):
 
Tides and Currents Weather Stations Pressure Air Temp Water Temp Dewpoint Dewpoint Depression Visibility Wind Speed Wind Dir Waves Ship Positions

African Loon

Last reported at 2016-Sep-11 14:25 UTC. Time now 2016-Sep-24 20:53 UTC.
Position N 22°01' E 114°23'.
Warning: this ship's position is 13 days out of date.

Length 200 m; draft 7.1 m.

Type: Cargo ship. MMSI: 374319000.

Date/timePositionNaut miles runAvg speedWind from/ knotsBaromVisibWave heightAir tempDewpointWater temp
2016-Sep-11 14:25N 22°01' E 114°23'7 7.8
2016-Sep-11 13:32N 22°07' E 114°19'29 9.9
2016-Sep-11 10:34N 22°10' E 113°47'3912.1
2016-Sep-11 07:22N 22°48' E 113°37'12 3.0
2016-Sep-11 03:29N 22°58' E 113°33'0 0.0
2016-Sep-11 02:29N 22°58' E 113°33'0 0.0
2016-Sep-11 01:17N 22°58' E 113°33'0 0.0
2016-Sep-11 00:29N 22°58' E 113°33'0 0.0
2016-Sep-10 23:23N 22°58' E 113°33'0 0.0
2016-Sep-10 22:29N 22°58' E 113°33'0 0.0
2016-Sep-10 21:29N 22°58' E 113°33'0 0.0
2016-Sep-10 20:29N 22°58' E 113°33'0 0.0
2016-Sep-10 19:29N 22°58' E 113°33'0 0.0
2016-Sep-10 18:29N 22°58' E 113°33'0 0.0
2016-Sep-10 17:29N 22°58' E 113°33'0 0.0
2016-Sep-10 16:29N 22°58' E 113°33'0 0.0
2016-Sep-10 15:23N 22°58' E 113°33'0 0.0
2016-Sep-10 14:29N 22°58' E 113°33'0 0.0
2016-Sep-10 13:29N 22°58' E 113°33'0 0.0
2016-Sep-10 12:29N 22°58' E 113°33'0 0.0
2016-Sep-10 11:23N 22°58' E 113°33'0 0.0
2016-Sep-10 10:23N 22°58' E 113°33'0 0.0
2016-Sep-10 09:29N 22°58' E 113°33'0 0.0
2016-Sep-10 08:29N 22°58' E 113°33'0 0.0
2016-Sep-10 07:29N 22°58' E 113°33'0 0.0
2016-Sep-10 06:29N 22°58' E 113°33'0 0.0
2016-Sep-10 05:29N 22°58' E 113°33'0 0.0
2016-Sep-10 04:29N 22°58' E 113°33'0 0.0
2016-Sep-10 03:29N 22°58' E 113°33'0 0.0
2016-Sep-10 02:30N 22°58' E 113°33'0 0.0
2016-Sep-10 01:23N 22°58' E 113°33'0 0.0
2016-Sep-10 00:17N 22°58' E 113°33'0 0.0
2016-Sep-09 23:29N 22°58' E 113°33'0 0.0
2016-Sep-09 22:23N 22°58' E 113°33'0 0.0
2016-Sep-09 21:24N 22°58' E 113°33'0 0.0
2016-Sep-09 20:29N 22°58' E 113°33'0 0.0
2016-Sep-09 19:29N 22°58' E 113°33'0 0.0
2016-Sep-09 18:29N 22°58' E 113°33'0 0.0
2016-Sep-09 17:29N 22°58' E 113°33'0 0.0
2016-Sep-09 16:29N 22°58' E 113°33'0 0.0
2016-Sep-09 15:29N 22°58' E 113°33'0 0.0
2016-Sep-09 14:29N 22°58' E 113°33'0 0.0
2016-Sep-09 13:29N 22°58' E 113°33'0 0.0
2016-Sep-09 10:29N 22°58' E 113°33'0 0.0
2016-Sep-09 09:29N 22°58' E 113°33'0 0.0
2016-Sep-09 08:29N 22°58' E 113°33'0 0.0
2016-Sep-09 07:29N 22°58' E 113°33'0 0.0
2016-Sep-09 06:23N 22°58' E 113°33'0 0.0
2016-Sep-09 05:29N 22°58' E 113°33'0 0.0
2016-Sep-09 04:17N 22°58' E 113°33'0 0.0
2016-Sep-09 03:29N 22°58' E 113°33'0 0.0
2016-Sep-09 02:23N 22°58' E 113°33'0 0.0
2016-Sep-09 01:23N 22°58' E 113°33'0 0.0
2016-Sep-09 00:29N 22°58' E 113°33'0 0.0
2016-Sep-08 23:17N 22°58' E 113°33'0 0.0
2016-Sep-08 22:29N 22°58' E 113°33'0 0.0
2016-Sep-08 21:29N 22°58' E 113°33'0 0.0
2016-Sep-08 20:29N 22°58' E 113°33'0 0.0
2016-Sep-08 19:29N 22°58' E 113°33'0 0.0
2016-Sep-08 18:29N 22°58' E 113°33'0 0.0
2016-Sep-08 17:29N 22°58' E 113°33'0 0.0
2016-Sep-08 16:23N 22°58' E 113°33'0 0.0
2016-Sep-08 15:29N 22°58' E 113°33'0 0.0
2016-Sep-08 14:29N 22°58' E 113°33'0 0.0
2016-Sep-08 13:29N 22°58' E 113°33'0 0.0
2016-Sep-08 12:29N 22°58' E 113°33'0 0.0
2016-Sep-08 11:30N 22°58' E 113°33'0 0.0
2016-Sep-08 10:18N 22°58' E 113°33'1 1.7
2016-Sep-08 09:33N 22°57' E 113°33'9 9.0
2016-Sep-08 08:32N 22°49' E 113°36'5 0.2
2016-Sep-07 03:32N 22°44' E 113°39'2110.6
2016-Sep-07 01:33N 22°24' E 113°46'1212.0
2016-Sep-07 00:33N 22°13' E 113°49'9 7.8
2016-Sep-06 23:27N 22°05' E 113°54'26 1.1
2016-Sep-05 22:33N 22°08' E 114°22'  

Dump ship's entire track history